Αναφορές METAR

 

LGTS - Thessaloniki/Mik, Greece
Απόσταση από το σταθμό: ΝΝΔ 77km
Ενημερώθηκε: 17/01/2017 14:50
Κυρίως Νεφελώδης
Κυρίως Νεφελώδης
 Ανεμος από Δ
Ανεμος: Δ 7 km/h
Θερμοκρασία: 8°C
Wind Chill: 7°C
Σημείο Δρόσου: 5°C
Υγρασία: 82%
Βαρόμετρο: 1013 hPa
Νέφωση: Κυρίως Νεφελώδης
Ορατότητα: 8 km
Λεπτομέρειες νέφωσης: Διάσπαρτα Νέφη 152 m
Κυρίως Νεφελώδης 1067 m
2017/01/17 12:50 LGTS 171250Z 26004KT 8000 FEW005 BKN035 08/05 Q1013 NOSIG
LGKV - Kavala/Chrisoupo, Greece
Απόσταση από το σταθμό: ΑΝΑ 120km
Ενημερώθηκε: 17/01/2017 14:50
Ασθενής Βροχή, Νεφοσκεπής
Ασθενής Βροχή, Νεφοσκεπής
 Ανεμος από ΑΒΑ
Ανεμος: ΑΒΑ 15 km/h
Θερμοκρασία: 6°C
Wind Chill: 3°C
Σημείο Δρόσου: 6°C
Υγρασία: 100%
Βαρόμετρο: 1015 hPa
Summary: Ασθενής Βροχή
Νέφωση: Νεφοσκεπής
Ορατότητα: 10 km
Λεπτομέρειες νέφωσης: Μερικώς Νεφελώδης 457 m
Νεφοσκεπής 762 m
2017/01/17 12:50 LGKV 171250Z 06008KT 9999 -RA SCT015 OVC025 06/06 Q1015 RERA
 
LGKZ - Kozani (civ/Army, Greece
Απόσταση από το σταθμό: ΝΔ 154km
Ενημερώθηκε: 17/01/2017 14:50
Νεφοσκεπής
Νεφοσκεπής
 Ανεμος από calm
Ανεμος: Απνοια
Θερμοκρασία: 2°C
Σημείο Δρόσου: 0°C
Υγρασία: 87%
Βαρόμετρο: 1013 hPa
Νέφωση: Νεφοσκεπής
Ορατότητα: 6 km
Λεπτομέρειες νέφωσης: Μερικώς Νεφελώδης 61 m
Κυρίως Νεφελώδης 488 m
Νεφοσκεπής 2134 m
2017/01/17 12:50 LGKZ 171250Z 00000KT 6000 SCT002 BKN016 OVC070 02/M00 Q1013
LWSK - Skopje/Petrovac, Macedonia
Απόσταση από το σταθμό: ΔΒΔ 159km
Ενημερώθηκε: 17/01/2017 15:00
Mist, Νεφοσκεπής
Mist, Νεφοσκεπής
 Ανεμος από Δ
Ανεμος: Δ 2 km/h
Θερμοκρασία: 1°C
Σημείο Δρόσου: -1°C
Υγρασία: 87%
Βαρόμετρο: 1016 hPa
Summary: Mist
Νέφωση: Νεφοσκεπής
Ορατότητα: 2 km
Λεπτομέρειες νέφωσης: Μερικώς Νεφελώδης 366 m
Νεφοσκεπής 1067 m
2017/01/17 13:00 LWSK 171300Z 26001KT 2300 BR SCT012 OVC035 01/M01 Q1016 R99/2///95 NOSIG
 
LBSF - Sofia (observato, Bulgaria
Απόσταση από το σταθμό: Β 164km
Ενημερώθηκε: 17/01/2017 15:00
Νεφοσκεπής
Νεφοσκεπής
 Ανεμος από Α
Ανεμος: Α 11 km/h
Θερμοκρασία: 1°C
Wind Chill: -2°C
Σημείο Δρόσου: -1°C
Υγρασία: 87%
Βαρόμετρο: 1017 hPa
Νέφωση: Νεφοσκεπής
Ορατότητα: 10 km
Λεπτομέρειες νέφωσης: Διάσπαρτα Νέφη 579 m
Νεφοσκεπής 701 m
2017/01/17 13:00 LBSF 171300Z 09006KT 050V120 9999 FEW019 OVC023 01/M01 Q1017 R99/29//95 NOSIG
LBPD - Plovdiv, Bulgaria
Απόσταση από το σταθμό: ΒΑ 168km
Ενημερώθηκε: 01/01/1970 02:00
ΜΗ ΠΡΟΣΦΑΤΟ METAR

 
 
LWOH - Ohrid, Macedonia
Απόσταση από το σταθμό: Δ 204km
Ενημερώθηκε: 17/01/2017 15:00
Κυρίως Νεφελώδης
Κυρίως Νεφελώδης
 Ανεμος από ΔΒΔ
Ανεμος: ΔΒΔ 17 km/h
Θερμοκρασία: 3°C
Wind Chill: -1°C
Σημείο Δρόσου: -2°C
Υγρασία: 70%
Βαρόμετρο: 1011 hPa
Νέφωση: Κυρίως Νεφελώδης
Ορατότητα: 10 km
Λεπτομέρειες νέφωσης: Διάσπαρτα Νέφη 610 m
Κυρίως Νεφελώδης 1067 m
Κυρίως Νεφελώδης 2438 m
2017/01/17 13:00 LWOH 171300Z 29009KT 290V350 9999 FEW020 BKN035 BKN080 03/M02 Q1011
LGLM - Limnos Island Ar, Greece
Απόσταση από το σταθμό: ΝΑ 220km
Ενημερώθηκε: 17/01/2017 14:50
Ασθενής Βροχή, Μερικώς Νεφελώδης
Ασθενής Βροχή, Μερικώς Νεφελώδης
 Ανεμος από ΑΒΑ
Ανεμος: ΑΒΑ 22 km/h
Θερμοκρασία: 10°C
Wind Chill: 7°C
Σημείο Δρόσου: 8°C
Υγρασία: 88%
Βαρόμετρο: 1013 hPa
Summary: Ασθενής Βροχή
Νέφωση: Μερικώς Νεφελώδης
Ορατότητα: 10 km
Λεπτομέρειες νέφωσης: Διάσπαρτα Νέφη 244 m
Διάσπαρτα Νέφη 549 m
Μερικώς Νεφελώδης 610 m
2017/01/17 12:50 LGLM 171250Z 07012KT 9999 -RA FEW008 FEW018TCU SCT020 10/08 Q1013
 
LGBL - Nea Anchialos, Greece
Απόσταση από το σταθμό: Ν 221km
Ενημερώθηκε: 17/01/2017 14:50
Νεφοσκεπής
Νεφοσκεπής
 Ανεμος από Δ
Ανεμος: Δ 13 km/h
Θερμοκρασία: 5°C
Wind Chill: 2°C
Σημείο Δρόσου: 3°C
Υγρασία: 87%
Βαρόμετρο: 1013 hPa
Νέφωση: Νεφοσκεπής
Ορατότητα: 10 km
Λεπτομέρειες νέφωσης: Μερικώς Νεφελώδης 305 m
Νεφοσκεπής 762 m
2017/01/17 12:50 LGBL 171250Z 27007KT 9999 SCT010 OVC025 05/03 Q1013
LGSK - Skiathos Island, Greece
Απόσταση από το σταθμό: Ν 223km
Ενημερώθηκε: 17/01/2017 14:50
Μερικώς Νεφελώδης
Μερικώς Νεφελώδης
 Ανεμος από ΒΒΔ
Ανεμος: ΒΒΔ 13 km/h
Θερμοκρασία: 9°C
Wind Chill: 7°C
Σημείο Δρόσου: 7°C
Υγρασία: 87%
Βαρόμετρο: 1012 hPa
Νέφωση: Μερικώς Νεφελώδης
Ορατότητα: 10 km
Λεπτομέρειες νέφωσης: Διάσπαρτα Νέφη 305 m
Μερικώς Νεφελώδης 610 m
2017/01/17 12:50 LGSK 171250Z 34007KT 9999 FEW010 SCT020 09/07 Q1012
 
LGAL - Alexandroupolis, Greece
Απόσταση από το σταθμό: Α 231km
Ενημερώθηκε: 17/01/2017 14:50
Βροχή, Κυρίως Νεφελώδης
Βροχή, Κυρίως Νεφελώδης
 Ανεμος από ΒΑ
Ανεμος: ΒΑ 20 km/h
Θερμοκρασία: 7°C
Wind Chill: 4°C
Σημείο Δρόσου: 5°C
Υγρασία: 87%
Βαρόμετρο: 1015 hPa
Summary: Βροχή
Νέφωση: Κυρίως Νεφελώδης
Ορατότητα: 9 km
Λεπτομέρειες νέφωσης: Διάσπαρτα Νέφη 305 m
Κυρίως Νεφελώδης 762 m
Κυρίως Νεφελώδης 1829 m
2017/01/17 12:50 LGAL 171250Z 04011KT 9000 RA FEW010 BKN025 BKN060 07/05 Q1015
BKPR - Prishtina, Yugoslavia
Απόσταση από το σταθμό: ΒΔ 240km
Ενημερώθηκε: 17/01/2017 15:00
Κυρίως Νεφελώδης
Κυρίως Νεφελώδης
 Ανεμος από Β
Ανεμος: Β 28 km/h
Θερμοκρασία: -1°C
Wind Chill: -8°C
Σημείο Δρόσου: -5°C
Υγρασία: 75%
Βαρόμετρο: 1014 hPa
Νέφωση: Κυρίως Νεφελώδης
Ορατότητα: 10 km
Λεπτομέρειες νέφωσης: Μερικώς Νεφελώδης 457 m
Κυρίως Νεφελώδης 1524 m
2017/01/17 13:00 BKPR 171300Z 36015KT 9999 SCT015 BKN050 M01/M05 Q1014 NOSIG RMK 17290094
 
LGIO - Ioannina, Greece
Απόσταση από το σταθμό: ΝΔ 262km
Ενημερώθηκε: 17/01/2017 14:50
Νεφοσκεπής
Νεφοσκεπής
 Ανεμος από μεταβλητός
Ανεμος: μεταβλητός 0 km/h
Θερμοκρασία: 6°C
Σημείο Δρόσου: 4°C
Υγρασία: 87%
Βαρόμετρο: 1009 hPa
Νέφωση: Νεφοσκεπής
Ορατότητα: 10 km
Λεπτομέρειες νέφωσης: Διάσπαρτα Νέφη 213 m
Κυρίως Νεφελώδης 914 m
Νεφοσκεπής 2438 m
2017/01/17 12:50 LGIO 171250Z /////KT 9999 FEW007 BKN030 OVC080 06/04 Q1009
LYNI - Nis, Yugoslavia
Απόσταση από το σταθμό: ΒΒΔ 262km
Ενημερώθηκε: 17/01/2017 14:30
Κυρίως Νεφελώδης
Κυρίως Νεφελώδης
 Ανεμος από ΒΑ
Ανεμος: ΒΑ 15 km/h
Θερμοκρασία: 1°C
Wind Chill: -3°C
Σημείο Δρόσου: -5°C
Υγρασία: 65%
Βαρόμετρο: 1019 hPa
Νέφωση: Κυρίως Νεφελώδης
Ορατότητα: 10 km
Λεπτομέρειες νέφωσης: Διάσπαρτα Νέφη 610 m
Κυρίως Νεφελώδης 1433 m
2017/01/17 12:30 LYNI 171230Z 04008KT 010V080 9999 FEW020 BKN047 01/M05 Q1019 R11/2///94 NOSIG
 
LGSY - Skiros, Greece
Απόσταση από το σταθμό: ΝΝΑ 268km
Ενημερώθηκε: 17/01/2017 12:50
ΜΗ ΠΡΟΣΦΑΤΟ METAR
Μερικώς Νεφελώδης
Μερικώς Νεφελώδης
 Ανεμος από μεταβλητός
Ανεμος: μεταβλητός 6 km/h
Θερμοκρασία: 12°C
Σημείο Δρόσου: 9°C
Υγρασία: 82%
Βαρόμετρο: 1011 hPa
Νέφωση: Μερικώς Νεφελώδης
Ορατότητα: 10 km
Λεπτομέρειες νέφωσης: Μερικώς Νεφελώδης 610 m
Μερικώς Νεφελώδης 2438 m
2017/01/17 10:50 LGSY 171050Z VRB03KT 9999 SCT020 SCT080 12/09 Q1011 RMK SCT080 FEW180 BLU
LATI - Tirana, Albania
Απόσταση από το σταθμό: Δ 290km
Ενημερώθηκε: 17/01/2017 14:50
Νεφοσκεπής
Νεφοσκεπής
 Ανεμος από Β
Ανεμος: Β 6 km/h
Θερμοκρασία: 10°C
Σημείο Δρόσου: 2°C
Υγρασία: 58%
Βαρόμετρο: 1009 hPa
Νέφωση: Νεφοσκεπής
Ορατότητα: 10 km
Λεπτομέρειες νέφωσης: Διάσπαρτα Νέφη 762 m
Μερικώς Νεφελώδης 1524 m
Νεφοσκεπής 2134 m
2017/01/17 12:50 LATI 171250Z 01003KT 9999 FEW025CB SCT050 OVC070 10/02 Q1009 NOSIG
 
LBGO - Gorna Orechovist, Bulgaria
Απόσταση από το σταθμό: ΒΑ 300km
Ενημερώθηκε: 17/01/2017 15:00
Χιόνι, Νεφοσκεπής
Χιόνι, Νεφοσκεπής
 Ανεμος από Β
Ανεμος: Β 6 km/h
Θερμοκρασία: 0°C
Σημείο Δρόσου: 0°C
Υγρασία: 100%
Βαρόμετρο: 1023 hPa
Summary: Χιόνι
Νέφωση: Νεφοσκεπής
Ορατότητα: 2 km
Λεπτομέρειες νέφωσης: Κυρίως Νεφελώδης 91 m
Κυρίως Νεφελώδης 274 m
Νεφοσκεπής 488 m
2017/01/17 13:00 LBGO 171300Z AUTO 36003KT 320V060 2000 SN BKN003/// BKN009/// OVC016/// 00/00 Q1023 R99/492091
LGPZ - Preveza/Aktion, Greece
Απόσταση από το σταθμό: ΝΔ 328km
Ενημερώθηκε: 17/01/2017 14:50
Κυρίως Νεφελώδης
Κυρίως Νεφελώδης
 Ανεμος από Α
Ανεμος: Α 15 km/h
Θερμοκρασία: 10°C
Wind Chill: 8°C
Σημείο Δρόσου: 6°C
Υγρασία: 76%
Βαρόμετρο: 1010 hPa
Νέφωση: Κυρίως Νεφελώδης
Ορατότητα: 10 km
Λεπτομέρειες νέφωσης: Διάσπαρτα Νέφη 549 m
Μερικώς Νεφελώδης 762 m
Κυρίως Νεφελώδης 2438 m
2017/01/17 12:50 LGPZ 171250Z 08008KT 9999 FEW018TCU SCT025 BKN080 10/06 Q1010
 
LGKR - Ioannis Kapodist, Greece
Απόσταση από το σταθμό: ΔΝΔ 330km
Ενημερώθηκε: 17/01/2017 14:50
Ασθενής Βροχή, Κυρίως Νεφελώδης
Ασθενής Βροχή, Κυρίως Νεφελώδης
 Ανεμος από ΑΝΑ
Ανεμος: ΑΝΑ 19 km/h
Θερμοκρασία: 9°C
Wind Chill: 6°C
Σημείο Δρόσου: 7°C
Υγρασία: 87%
Βαρόμετρο: 1009 hPa
Summary: Ασθενής Βροχή
Νέφωση: Κυρίως Νεφελώδης
Ορατότητα: 7 km
Λεπτομέρειες νέφωσης: Μερικώς Νεφελώδης 427 m
Διάσπαρτα Νέφη 549 m
Κυρίως Νεφελώδης 762 m
Κυρίως Νεφελώδης 2438 m
2017/01/17 12:50 LGKR 171250Z 11010KT 7000 -RA SCT014 FEW018TCU BKN025 BKN080 09/07 Q1009 TEMPO RA
LGEL - Elefsis (hel-Afb, Greece
Απόσταση από το σταθμό: Ν 347km
Ενημερώθηκε: 17/01/2017 14:50
Κυρίως Νεφελώδης
Κυρίως Νεφελώδης
 Ανεμος από μεταβλητός
Ανεμος: μεταβλητός 6 km/h
Θερμοκρασία: 13°C
Σημείο Δρόσου: 6°C
Υγρασία: 63%
Βαρόμετρο: 1011 hPa
Νέφωση: Κυρίως Νεφελώδης
Ορατότητα: 10 km
Λεπτομέρειες νέφωσης: Διάσπαρτα Νέφη 610 m
Κυρίως Νεφελώδης 762 m
Κυρίως Νεφελώδης 2134 m
2017/01/17 12:50 LGEL 171250Z VRB03KT 9999 FEW020 BKN025 BKN070 13/06 Q1011


 ♦     ♦     ♦     Ποτέ μη βασίζετε κρίσιμες αποφάσεις σ'αυτές ή οποιεσδήποτε πληροφορίες καιρού από το Internet     ♦     ♦     ♦